sensor_id;sensor_type;location;lat;lon;timestamp;temperature;humidity
10964;DHT22;5534;48.784;9.190;2022-12-18T00:02:03;-2.10;99.90
10964;DHT22;5534;48.784;9.190;2022-12-18T00:04:29;-1.80;99.90
10964;DHT22;5534;48.784;9.190;2022-12-18T00:06:55;-1.70;99.90
10964;DHT22;5534;48.784;9.190;2022-12-18T00:09:21;-2.10;99.90
10964;DHT22;5534;48.784;9.190;2022-12-18T00:11:46;-2.10;99.90
10964;DHT22;5534;48.784;9.190;2022-12-18T00:14:13;-1.80;99.90
10964;DHT22;5534;48.784;9.190;2022-12-18T00:16:39;-1.70;99.90
10964;DHT22;5534;48.784;9.190;2022-12-18T00:19:05;-1.70;99.90
10964;DHT22;5534;48.784;9.190;2022-12-18T00:21:33;-1.70;99.90
10964;DHT22;5534;48.784;9.190;2022-12-18T00:23:59;-1.70;99.90
10964;DHT22;5534;48.784;9.190;2022-12-18T00:26:30;-2.00;99.90
10964;DHT22;5534;48.784;9.190;2022-12-18T00:28:59;-2.20;99.90
10964;DHT22;5534;48.784;9.190;2022-12-18T00:31:25;-2.00;99.90
10964;DHT22;5534;48.784;9.190;2022-12-18T00:33:53;-2.50;99.90
10964;DHT22;5534;48.784;9.190;2022-12-18T00:36:21;-2.40;99.90
10964;DHT22;5534;48.784;9.190;2022-12-18T00:38:48;-2.10;99.90
10964;DHT22;5534;48.784;9.190;2022-12-18T00:41:15;-2.10;99.90
10964;DHT22;5534;48.784;9.190;2022-12-18T00:44:05;-2.00;99.90
10964;DHT22;5534;48.784;9.190;2022-12-18T00:46:31;-1.90;99.90
10964;DHT22;5534;48.784;9.190;2022-12-18T00:48:57;-1.80;99.90
10964;DHT22;5534;48.784;9.190;2022-12-18T00:51:24;-2.60;99.90
10964;DHT22;5534;48.784;9.190;2022-12-18T00:53:50;-2.30;99.90
10964;DHT22;5534;48.784;9.190;2022-12-18T00:56:15;-2.30;99.90
10964;DHT22;5534;48.784;9.190;2022-12-18T00:58:41;-2.00;99.90
10964;DHT22;5534;48.784;9.190;2022-12-18T01:01:07;-1.90;99.90
10964;DHT22;5534;48.784;9.190;2022-12-18T01:03:33;-1.90;99.90
10964;DHT22;5534;48.784;9.190;2022-12-18T01:05:58;-1.90;99.90
10964;DHT22;5534;48.784;9.190;2022-12-18T01:08:24;-1.90;99.90
10964;DHT22;5534;48.784;9.190;2022-12-18T01:10:50;-2.10;99.90
10964;DHT22;5534;48.784;9.190;2022-12-18T01:13:16;-3.00;99.90
10964;DHT22;5534;48.784;9.190;2022-12-18T01:15:51;-2.60;99.90
10964;DHT22;5534;48.784;9.190;2022-12-18T01:18:18;-2.20;99.90
10964;DHT22;5534;48.784;9.190;2022-12-18T01:20:44;-2.10;99.90
10964;DHT22;5534;48.784;9.190;2022-12-18T01:23:09;-2.00;99.90
10964;DHT22;5534;48.784;9.190;2022-12-18T01:25:38;-2.00;99.90
10964;DHT22;5534;48.784;9.190;2022-12-18T01:28:04;-2.00;99.90
10964;DHT22;5534;48.784;9.190;2022-12-18T01:30:30;-2.50;99.90
10964;DHT22;5534;48.784;9.190;2022-12-18T01:32:56;-2.10;99.90
10964;DHT22;5534;48.784;9.190;2022-12-18T01:35:21;-2.10;99.90
10964;DHT22;5534;48.784;9.190;2022-12-18T01:37:47;-2.00;99.90
10964;DHT22;5534;48.784;9.190;2022-12-18T01:40:13;-2.00;99.90
10964;DHT22;5534;48.784;9.190;2022-12-18T01:42:38;-2.00;99.90
10964;DHT22;5534;48.784;9.190;2022-12-18T01:47:47;-2.10;99.90
10964;DHT22;5534;48.784;9.190;2022-12-18T01:52:43;-2.20;99.90
10964;DHT22;5534;48.784;9.190;2022-12-18T01:55:11;-2.20;99.90
10964;DHT22;5534;48.784;9.190;2022-12-18T01:57:38;-2.10;99.90
10964;DHT22;5534;48.784;9.190;2022-12-18T02:00:09;-2.00;99.90
10964;DHT22;5534;48.784;9.190;2022-12-18T02:02:35;-2.00;99.90
10964;DHT22;5534;48.784;9.190;2022-12-18T02:05:02;-1.90;99.90
10964;DHT22;5534;48.784;9.190;2022-12-18T02:10:27;-2.30;99.90
10964;DHT22;5534;48.784;9.190;2022-12-18T02:13:07;-2.10;99.90
10964;DHT22;5534;48.784;9.190;2022-12-18T02:15:47;-1.90;99.90
10964;DHT22;5534;48.784;9.190;2022-12-18T02:18:26;-1.80;99.90
10964;DHT22;5534;48.784;9.190;2022-12-18T02:26:27;-2.00;99.90
10964;DHT22;5534;48.784;9.190;2022-12-18T02:29:08;-2.00;99.90
10964;DHT22;5534;48.784;9.190;2022-12-18T02:31:39;-2.80;99.90
10964;DHT22;5534;48.784;9.190;2022-12-18T02:34:09;-2.90;99.90
10964;DHT22;5534;48.784;9.190;2022-12-18T02:36:39;-2.50;99.90
10964;DHT22;5534;48.784;9.190;2022-12-18T02:39:07;-2.20;99.90
10964;DHT22;5534;48.784;9.190;2022-12-18T02:41:34;-2.00;99.90
10964;DHT22;5534;48.784;9.190;2022-12-18T02:44:08;-1.80;99.90
10964;DHT22;5534;48.784;9.190;2022-12-18T02:46:43;-2.30;99.90
10964;DHT22;5534;48.784;9.190;2022-12-18T02:58:01;-1.90;99.90
10964;DHT22;5534;48.784;9.190;2022-12-18T03:03:26;-2.30;99.90
10964;DHT22;5534;48.784;9.190;2022-12-18T03:06:03;-2.10;99.90
10964;DHT22;5534;48.784;9.190;2022-12-18T03:08:36;-2.00;99.90
10964;DHT22;5534;48.784;9.190;2022-12-18T03:11:09;-1.80;99.90
10964;DHT22;5534;48.784;9.190;2022-12-18T03:13:46;-1.70;99.90
10964;DHT22;5534;48.784;9.190;2022-12-18T03:16:18;-2.40;99.90
10964;DHT22;5534;48.784;9.190;2022-12-18T03:18:51;-3.30;99.90
10964;DHT22;5534;48.784;9.190;2022-12-18T03:21:20;-3.40;99.90
10964;DHT22;5534;48.784;9.190;2022-12-18T03:23:50;-3.50;99.90
10964;DHT22;5534;48.784;9.190;2022-12-18T03:26:21;-3.30;99.90
10964;DHT22;5534;48.784;9.190;2022-12-18T03:28:55;-2.60;99.90
10964;DHT22;5534;48.784;9.190;2022-12-18T03:31:23;-2.30;99.90
10964;DHT22;5534;48.784;9.190;2022-12-18T03:33:54;-2.20;99.90
10964;DHT22;5534;48.784;9.190;2022-12-18T03:36:21;-2.10;99.90
10964;DHT22;5534;48.784;9.190;2022-12-18T03:38:47;-2.00;99.90
10964;DHT22;5534;48.784;9.190;2022-12-18T03:41:37;-2.00;99.90
10964;DHT22;5534;48.784;9.190;2022-12-18T03:44:15;-2.00;99.90
10964;DHT22;5534;48.784;9.190;2022-12-18T03:46:58;-2.00;99.90
10964;DHT22;5534;48.784;9.190;2022-12-18T03:49:44;-2.00;99.90
10964;DHT22;5534;48.784;9.190;2022-12-18T03:52:23;-2.00;99.90
10964;DHT22;5534;48.784;9.190;2022-12-18T03:54:52;-2.00;99.90
10964;DHT22;5534;48.784;9.190;2022-12-18T03:57:22;-2.00;99.90
10964;DHT22;5534;48.784;9.190;2022-12-18T03:59:52;-2.00;99.90
10964;DHT22;5534;48.784;9.190;2022-12-18T04:02:21;-2.00;99.90
10964;DHT22;5534;48.784;9.190;2022-12-18T04:04:48;-1.90;99.90
10964;DHT22;5534;48.784;9.190;2022-12-18T04:07:17;-1.90;99.90
10964;DHT22;5534;48.784;9.190;2022-12-18T04:09:43;-2.30;99.90
10964;DHT22;5534;48.784;9.190;2022-12-18T04:12:10;-2.40;99.90
10964;DHT22;5534;48.784;9.190;2022-12-18T04:14:36;-2.10;99.90
10964;DHT22;5534;48.784;9.190;2022-12-18T04:17:03;-2.00;99.90
10964;DHT22;5534;48.784;9.190;2022-12-18T04:19:28;-2.00;99.90
10964;DHT22;5534;48.784;9.190;2022-12-18T04:21:54;-2.00;99.90
10964;DHT22;5534;48.784;9.190;2022-12-18T04:24:20;-2.10;99.90
10964;DHT22;5534;48.784;9.190;2022-12-18T04:26:46;-2.10;99.90
10964;DHT22;5534;48.784;9.190;2022-12-18T04:29:12;-2.00;99.90
10964;DHT22;5534;48.784;9.190;2022-12-18T04:31:38;-1.90;99.90
10964;DHT22;5534;48.784;9.190;2022-12-18T04:34:03;-2.00;99.90
10964;DHT22;5534;48.784;9.190;2022-12-18T04:36:29;-1.90;99.90
10964;DHT22;5534;48.784;9.190;2022-12-18T04:38:55;-1.90;99.90
10964;DHT22;5534;48.784;9.190;2022-12-18T04:41:21;-1.90;99.90
10964;DHT22;5534;48.784;9.190;2022-12-18T04:43:47;-2.00;99.90
10964;DHT22;5534;48.784;9.190;2022-12-18T04:46:13;-2.00;99.90
10964;DHT22;5534;48.784;9.190;2022-12-18T04:48:38;-2.00;99.90
10964;DHT22;5534;48.784;9.190;2022-12-18T04:51:05;-2.10;99.90
10964;DHT22;5534;48.784;9.190;2022-12-18T04:53:31;-2.20;99.90
10964;DHT22;5534;48.784;9.190;2022-12-18T04:56:09;-2.10;99.90
10964;DHT22;5534;48.784;9.190;2022-12-18T04:58:35;-2.00;99.90
10964;DHT22;5534;48.784;9.190;2022-12-18T05:01:02;-2.00;99.90
10964;DHT22;5534;48.784;9.190;2022-12-18T05:03:27;-2.00;99.90
10964;DHT22;5534;48.784;9.190;2022-12-18T05:05:53;-2.10;99.90
10964;DHT22;5534;48.784;9.190;2022-12-18T05:08:19;-2.20;99.90
10964;DHT22;5534;48.784;9.190;2022-12-18T05:10:44;-2.30;99.90
10964;DHT22;5534;48.784;9.190;2022-12-18T05:13:10;-2.30;99.90
10964;DHT22;5534;48.784;9.190;2022-12-18T05:15:36;-2.20;99.90
10964;DHT22;5534;48.784;9.190;2022-12-18T05:18:02;-2.20;99.90
10964;DHT22;5534;48.784;9.190;2022-12-18T05:20:29;-2.20;99.90
10964;DHT22;5534;48.784;9.190;2022-12-18T05:22:55;-2.40;99.90
10964;DHT22;5534;48.784;9.190;2022-12-18T05:25:21;-2.60;99.90
10964;DHT22;5534;48.784;9.190;2022-12-18T05:27:48;-2.60;99.90
10964;DHT22;5534;48.784;9.190;2022-12-18T05:30:15;-2.40;99.90
10964;DHT22;5534;48.784;9.190;2022-12-18T05:32:41;-2.20;99.90
10964;DHT22;5534;48.784;9.190;2022-12-18T05:35:08;-2.40;99.90
10964;DHT22;5534;48.784;9.190;2022-12-18T05:37:35;-2.40;99.90
10964;DHT22;5534;48.784;9.190;2022-12-18T05:40:01;-2.40;99.90
10964;DHT22;5534;48.784;9.190;2022-12-18T05:42:27;-2.40;99.90
10964;DHT22;5534;48.784;9.190;2022-12-18T05:44:53;-2.50;99.90
10964;DHT22;5534;48.784;9.190;2022-12-18T05:47:19;-2.40;99.90
10964;DHT22;5534;48.784;9.190;2022-12-18T05:49:45;-2.50;99.90
10964;DHT22;5534;48.784;9.190;2022-12-18T05:52:10;-2.40;99.90
10964;DHT22;5534;48.784;9.190;2022-12-18T05:54:36;-2.30;99.90
10964;DHT22;5534;48.784;9.190;2022-12-18T05:57:02;-2.30;99.90
10964;DHT22;5534;48.784;9.190;2022-12-18T05:59:31;-2.30;99.90
10964;DHT22;5534;48.784;9.190;2022-12-18T06:01:56;-2.20;99.90
10964;DHT22;5534;48.784;9.190;2022-12-18T06:04:22;-2.20;99.90
10964;DHT22;5534;48.784;9.190;2022-12-18T06:06:48;-2.20;99.90
10964;DHT22;5534;48.784;9.190;2022-12-18T06:09:14;-2.10;99.90
10964;DHT22;5534;48.784;9.190;2022-12-18T06:11:39;-2.00;99.90
10964;DHT22;5534;48.784;9.190;2022-12-18T06:14:06;-3.50;99.90
10964;DHT22;5534;48.784;9.190;2022-12-18T06:16:32;-3.40;99.90
10964;DHT22;5534;48.784;9.190;2022-12-18T06:18:58;-3.70;99.90
10964;DHT22;5534;48.784;9.190;2022-12-18T06:21:24;-3.20;99.90
10964;DHT22;5534;48.784;9.190;2022-12-18T06:23:50;-2.80;99.90
10964;DHT22;5534;48.784;9.190;2022-12-18T06:26:16;-2.60;99.90
10964;DHT22;5534;48.784;9.190;2022-12-18T06:28:42;-2.50;99.90
10964;DHT22;5534;48.784;9.190;2022-12-18T06:31:08;-2.50;99.90
10964;DHT22;5534;48.784;9.190;2022-12-18T06:33:35;-2.40;99.90
10964;DHT22;5534;48.784;9.190;2022-12-18T06:36:06;-2.40;99.90
10964;DHT22;5534;48.784;9.190;2022-12-18T06:38:33;-2.40;99.90
10964;DHT22;5534;48.784;9.190;2022-12-18T06:40:59;-2.40;99.90
10964;DHT22;5534;48.784;9.190;2022-12-18T06:43:25;-2.50;99.90
10964;DHT22;5534;48.784;9.190;2022-12-18T06:45:57;-2.50;99.90
10964;DHT22;5534;48.784;9.190;2022-12-18T06:48:25;-2.50;99.90
10964;DHT22;5534;48.784;9.190;2022-12-18T06:50:51;-2.50;99.90
10964;DHT22;5534;48.784;9.190;2022-12-18T06:53:16;-2.50;99.90
10964;DHT22;5534;48.784;9.190;2022-12-18T06:55:42;-2.50;99.90
10964;DHT22;5534;48.784;9.190;2022-12-18T06:58:08;-2.50;99.90
10964;DHT22;5534;48.784;9.190;2022-12-18T07:00:34;-2.40;99.90
10964;DHT22;5534;48.784;9.190;2022-12-18T07:03:00;-2.50;99.90
10964;DHT22;5534;48.784;9.190;2022-12-18T07:05:26;-2.50;99.90
10964;DHT22;5534;48.784;9.190;2022-12-18T07:07:51;-2.50;99.90
10964;DHT22;5534;48.784;9.190;2022-12-18T07:10:17;-2.60;99.90
10964;DHT22;5534;48.784;9.190;2022-12-18T07:12:43;-2.60;99.90
10964;DHT22;5534;48.784;9.190;2022-12-18T07:15:09;-2.60;99.90
10964;DHT22;5534;48.784;9.190;2022-12-18T07:17:35;-2.60;99.90
10964;DHT22;5534;48.784;9.190;2022-12-18T07:20:03;-2.50;99.90
10964;DHT22;5534;48.784;9.190;2022-12-18T07:22:29;-2.50;99.90
10964;DHT22;5534;48.784;9.190;2022-12-18T07:24:55;-2.50;99.90
10964;DHT22;5534;48.784;9.190;2022-12-18T07:27:21;-2.60;99.90
10964;DHT22;5534;48.784;9.190;2022-12-18T07:29:47;-2.50;99.90
10964;DHT22;5534;48.784;9.190;2022-12-18T07:32:13;-2.50;99.90
10964;DHT22;5534;48.784;9.190;2022-12-18T07:34:38;-2.60;99.90
10964;DHT22;5534;48.784;9.190;2022-12-18T07:37:04;-2.60;99.90
10964;DHT22;5534;48.784;9.190;2022-12-18T07:39:30;-2.60;99.90
10964;DHT22;5534;48.784;9.190;2022-12-18T07:41:56;-2.60;99.90
10964;DHT22;5534;48.784;9.190;2022-12-18T07:44:40;-2.70;99.90
10964;DHT22;5534;48.784;9.190;2022-12-18T07:47:06;-2.70;99.90
10964;DHT22;5534;48.784;9.190;2022-12-18T07:49:33;-2.80;99.90
10964;DHT22;5534;48.784;9.190;2022-12-18T07:51:58;-2.70;99.90
10964;DHT22;5534;48.784;9.190;2022-12-18T07:54:24;-3.20;99.90
10964;DHT22;5534;48.784;9.190;2022-12-18T07:56:51;-3.80;99.90
10964;DHT22;5534;48.784;9.190;2022-12-18T07:59:17;-4.20;99.90
10964;DHT22;5534;48.784;9.190;2022-12-18T08:01:43;-3.90;99.90
10964;DHT22;5534;48.784;9.190;2022-12-18T08:04:09;-3.40;99.90
10964;DHT22;5534;48.784;9.190;2022-12-18T08:06:35;-3.10;99.90
10964;DHT22;5534;48.784;9.190;2022-12-18T08:09:01;-2.90;99.90
10964;DHT22;5534;48.784;9.190;2022-12-18T08:11:27;-2.80;99.90
10964;DHT22;5534;48.784;9.190;2022-12-18T08:13:54;-3.20;99.90
10964;DHT22;5534;48.784;9.190;2022-12-18T08:16:20;-3.50;99.90
10964;DHT22;5534;48.784;9.190;2022-12-18T08:18:47;-3.60;99.90
10964;DHT22;5534;48.784;9.190;2022-12-18T08:21:19;-4.00;99.90
10964;DHT22;5534;48.784;9.190;2022-12-18T08:23:46;-3.60;99.90
10964;DHT22;5534;48.784;9.190;2022-12-18T08:26:13;-3.80;99.90
10964;DHT22;5534;48.784;9.190;2022-12-18T08:28:40;-4.50;99.90
10964;DHT22;5534;48.784;9.190;2022-12-18T08:31:06;-4.70;99.90
10964;DHT22;5534;48.784;9.190;2022-12-18T08:33:32;-4.60;99.90
10964;DHT22;5534;48.784;9.190;2022-12-18T08:35:59;-4.30;99.90
10964;DHT22;5534;48.784;9.190;2022-12-18T08:38:25;-4.00;99.90
10964;DHT22;5534;48.784;9.190;2022-12-18T08:40:59;-3.60;99.90
10964;DHT22;5534;48.784;9.190;2022-12-18T08:43:25;-3.20;99.90
10964;DHT22;5534;48.784;9.190;2022-12-18T08:46:11;-3.00;99.90
10964;DHT22;5534;48.784;9.190;2022-12-18T08:48:36;-2.90;99.90
10964;DHT22;5534;48.784;9.190;2022-12-18T08:51:04;-2.90;99.90
10964;DHT22;5534;48.784;9.190;2022-12-18T08:53:29;-3.00;99.90
10964;DHT22;5534;48.784;9.190;2022-12-18T08:55:56;-2.90;99.90
10964;DHT22;5534;48.784;9.190;2022-12-18T08:58:22;-2.90;99.90
10964;DHT22;5534;48.784;9.190;2022-12-18T09:00:48;-2.80;99.90
10964;DHT22;5534;48.784;9.190;2022-12-18T09:03:18;-2.70;99.90
10964;DHT22;5534;48.784;9.190;2022-12-18T09:05:46;-2.70;99.90
10964;DHT22;5534;48.784;9.190;2022-12-18T09:08:12;-2.70;99.90
10964;DHT22;5534;48.784;9.190;2022-12-18T09:10:43;-3.30;99.90
10964;DHT22;5534;48.784;9.190;2022-12-18T09:13:10;-3.90;99.90
10964;DHT22;5534;48.784;9.190;2022-12-18T09:15:41;-3.80;99.90
10964;DHT22;5534;48.784;9.190;2022-12-18T09:18:07;-3.50;99.90
10964;DHT22;5534;48.784;9.190;2022-12-18T09:20:33;-3.10;99.90
10964;DHT22;5534;48.784;9.190;2022-12-18T09:22:58;-3.30;99.90
10964;DHT22;5534;48.784;9.190;2022-12-18T09:25:24;-3.80;99.90
10964;DHT22;5534;48.784;9.190;2022-12-18T09:27:50;-3.90;99.90
10964;DHT22;5534;48.784;9.190;2022-12-18T09:30:16;-4.10;99.90
10964;DHT22;5534;48.784;9.190;2022-12-18T09:32:41;-3.90;99.90
10964;DHT22;5534;48.784;9.190;2022-12-18T09:35:07;-3.50;99.90
10964;DHT22;5534;48.784;9.190;2022-12-18T09:37:33;-3.10;99.90
10964;DHT22;5534;48.784;9.190;2022-12-18T09:39:59;-2.60;99.90
10964;DHT22;5534;48.784;9.190;2022-12-18T09:42:24;-2.80;99.90
10964;DHT22;5534;48.784;9.190;2022-12-18T09:44:53;-2.80;99.90
10964;DHT22;5534;48.784;9.190;2022-12-18T09:47:29;-2.70;99.90
10964;DHT22;5534;48.784;9.190;2022-12-18T09:49:58;-2.30;99.90
10964;DHT22;5534;48.784;9.190;2022-12-18T09:52:35;-2.10;99.90
10964;DHT22;5534;48.784;9.190;2022-12-18T09:55:32;-2.10;99.90
10964;DHT22;5534;48.784;9.190;2022-12-18T09:58:06;-2.00;99.90
10964;DHT22;5534;48.784;9.190;2022-12-18T10:00:36;-1.90;99.90
10964;DHT22;5534;48.784;9.190;2022-12-18T10:03:12;-1.80;99.90
10964;DHT22;5534;48.784;9.190;2022-12-18T10:08:43;-1.50;99.90
10964;DHT22;5534;48.784;9.190;2022-12-18T10:14:23;-1.60;99.90
10964;DHT22;5534;48.784;9.190;2022-12-18T10:24:51;-1.10;99.90
10964;DHT22;5534;48.784;9.190;2022-12-18T10:27:23;-1.00;99.90
10964;DHT22;5534;48.784;9.190;2022-12-18T10:29:50;-1.20;99.90
10964;DHT22;5534;48.784;9.190;2022-12-18T10:32:23;-1.10;99.90
10964;DHT22;5534;48.784;9.190;2022-12-18T10:34:52;-1.00;99.90
10964;DHT22;5534;48.784;9.190;2022-12-18T10:37:21;-0.80;99.90
10964;DHT22;5534;48.784;9.190;2022-12-18T10:40:13;-0.80;99.90
10964;DHT22;5534;48.784;9.190;2022-12-18T10:42:41;-0.70;99.90
10964;DHT22;5534;48.784;9.190;2022-12-18T10:45:17;-0.70;99.90
10964;DHT22;5534;48.784;9.190;2022-12-18T10:47:48;-0.70;99.90
10964;DHT22;5534;48.784;9.190;2022-12-18T10:50:46;-1.00;99.90
10964;DHT22;5534;48.784;9.190;2022-12-18T10:53:21;-1.00;99.90
10964;DHT22;5534;48.784;9.190;2022-12-18T10:55:47;-1.10;99.90
10964;DHT22;5534;48.784;9.190;2022-12-18T10:58:21;-1.30;99.90
10964;DHT22;5534;48.784;9.190;2022-12-18T11:03:39;-1.50;99.90
10964;DHT22;5534;48.784;9.190;2022-12-18T11:06:25;-1.20;99.90
10964;DHT22;5534;48.784;9.190;2022-12-18T11:09:02;-0.70;99.90
10964;DHT22;5534;48.784;9.190;2022-12-18T11:11:32;-0.40;99.90
10964;DHT22;5534;48.784;9.190;2022-12-18T11:14:06;-0.30;99.90
10964;DHT22;5534;48.784;9.190;2022-12-18T11:16:44;-0.20;99.90
10964;DHT22;5534;48.784;9.190;2022-12-18T11:21:52;-0.30;99.90
10964;DHT22;5534;48.784;9.190;2022-12-18T11:24:34;-0.10;99.90
10964;DHT22;5534;48.784;9.190;2022-12-18T11:27:03;-0.20;99.90
10964;DHT22;5534;48.784;9.190;2022-12-18T11:29:35;-0.30;99.90
10964;DHT22;5534;48.784;9.190;2022-12-18T11:32:38;-0.40;99.90
10964;DHT22;5534;48.784;9.190;2022-12-18T11:35:32;0.00;99.90
10964;DHT22;5534;48.784;9.190;2022-12-18T11:38:12;0.10;99.90
10964;DHT22;5534;48.784;9.190;2022-12-18T11:40:44;0.30;99.90
10964;DHT22;5534;48.784;9.190;2022-12-18T11:45:47;0.10;99.90
10964;DHT22;5534;48.784;9.190;2022-12-18T11:48:22;0.10;99.90
10964;DHT22;5534;48.784;9.190;2022-12-18T11:50:54;0.30;99.90
10964;DHT22;5534;48.784;9.190;2022-12-18T11:53:22;0.40;99.90
10964;DHT22;5534;48.784;9.190;2022-12-18T12:01:50;0.60;99.90
10964;DHT22;5534;48.784;9.190;2022-12-18T12:04:46;0.90;99.90
10964;DHT22;5534;48.784;9.190;2022-12-18T12:07:38;0.90;99.90
10964;DHT22;5534;48.784;9.190;2022-12-18T12:16:04;0.90;99.90
10964;DHT22;5534;48.784;9.190;2022-12-18T12:21:39;0.90;99.90
10964;DHT22;5534;48.784;9.190;2022-12-18T12:26:33;0.90;99.90
10964;DHT22;5534;48.784;9.190;2022-12-18T12:29:37;0.90;99.90
10964;DHT22;5534;48.784;9.190;2022-12-18T12:40:04;1.20;99.90
10964;DHT22;5534;48.784;9.190;2022-12-18T12:42:41;1.20;99.90
10964;DHT22;5534;48.784;9.190;2022-12-18T12:45:37;1.30;99.90
10964;DHT22;5534;48.784;9.190;2022-12-18T12:48:13;1.30;99.90
10964;DHT22;5534;48.784;9.190;2022-12-18T12:50:40;1.40;99.90
10964;DHT22;5534;48.784;9.190;2022-12-18T12:53:09;1.40;99.90
10964;DHT22;5534;48.784;9.190;2022-12-18T12:55:40;1.40;99.90
10964;DHT22;5534;48.784;9.190;2022-12-18T12:58:15;1.40;99.90
10964;DHT22;5534;48.784;9.190;2022-12-18T13:05:59;1.40;99.90
10964;DHT22;5534;48.784;9.190;2022-12-18T13:08:31;1.40;99.90
10964;DHT22;5534;48.784;9.190;2022-12-18T13:10:59;1.50;99.90
10964;DHT22;5534;48.784;9.190;2022-12-18T13:13:56;1.70;99.90
10964;DHT22;5534;48.784;9.190;2022-12-18T13:16:25;1.70;99.90
10964;DHT22;5534;48.784;9.190;2022-12-18T13:18:54;1.70;99.90
10964;DHT22;5534;48.784;9.190;2022-12-18T13:21:28;1.50;99.90
10964;DHT22;5534;48.784;9.190;2022-12-18T13:23:56;1.50;99.90
10964;DHT22;5534;48.784;9.190;2022-12-18T13:26:39;1.50;99.90
10964;DHT22;5534;48.784;9.190;2022-12-18T13:29:05;1.60;99.90
10964;DHT22;5534;48.784;9.190;2022-12-18T13:36:38;1.60;99.90
10964;DHT22;5534;48.784;9.190;2022-12-18T13:44:55;1.60;99.90
10964;DHT22;5534;48.784;9.190;2022-12-18T13:47:35;1.60;99.90
10964;DHT22;5534;48.784;9.190;2022-12-18T13:50:22;1.70;99.90
10964;DHT22;5534;48.784;9.190;2022-12-18T13:52:51;1.60;99.90
10964;DHT22;5534;48.784;9.190;2022-12-18T13:55:19;1.50;99.90
10964;DHT22;5534;48.784;9.190;2022-12-18T13:57:46;1.00;99.90
10964;DHT22;5534;48.784;9.190;2022-12-18T14:00:29;1.20;99.90
10964;DHT22;5534;48.784;9.190;2022-12-18T14:02:57;1.40;99.90
10964;DHT22;5534;48.784;9.190;2022-12-18T14:05:28;1.50;99.90
10964;DHT22;5534;48.784;9.190;2022-12-18T14:08:05;1.20;99.90
10964;DHT22;5534;48.784;9.190;2022-12-18T14:10:32;1.30;99.90
10964;DHT22;5534;48.784;9.190;2022-12-18T14:13:03;1.60;99.90
10964;DHT22;5534;48.784;9.190;2022-12-18T14:15:44;1.10;99.90
10964;DHT22;5534;48.784;9.190;2022-12-18T14:20:56;0.90;99.90
10964;DHT22;5534;48.784;9.190;2022-12-18T14:25:52;1.00;99.90
10964;DHT22;5534;48.784;9.190;2022-12-18T14:28:18;1.10;99.90
10964;DHT22;5534;48.784;9.190;2022-12-18T14:30:45;0.90;99.90
10964;DHT22;5534;48.784;9.190;2022-12-18T14:33:14;1.10;99.90
10964;DHT22;5534;48.784;9.190;2022-12-18T14:35:56;1.20;99.90
10964;DHT22;5534;48.784;9.190;2022-12-18T14:38:31;1.20;99.90
10964;DHT22;5534;48.784;9.190;2022-12-18T14:41:06;1.30;99.90
10964;DHT22;5534;48.784;9.190;2022-12-18T14:43:35;1.10;99.90
10964;DHT22;5534;48.784;9.190;2022-12-18T14:46:03;0.80;99.90
10964;DHT22;5534;48.784;9.190;2022-12-18T14:48:40;1.00;99.90
10964;DHT22;5534;48.784;9.190;2022-12-18T14:51:21;1.20;99.90
10964;DHT22;5534;48.784;9.190;2022-12-18T14:53:54;1.30;99.90
10964;DHT22;5534;48.784;9.190;2022-12-18T14:56:24;1.30;99.90
10964;DHT22;5534;48.784;9.190;2022-12-18T14:59:02;1.40;99.90
10964;DHT22;5534;48.784;9.190;2022-12-18T15:03:59;1.30;99.90
10964;DHT22;5534;48.784;9.190;2022-12-18T15:06:32;1.30;99.90
10964;DHT22;5534;48.784;9.190;2022-12-18T15:09:02;1.30;99.90
10964;DHT22;5534;48.784;9.190;2022-12-18T15:11:35;1.40;99.90
10964;DHT22;5534;48.784;9.190;2022-12-18T15:14:31;1.40;99.90
10964;DHT22;5534;48.784;9.190;2022-12-18T15:16:59;1.30;99.90
10964;DHT22;5534;48.784;9.190;2022-12-18T15:19:38;1.20;99.90
10964;DHT22;5534;48.784;9.190;2022-12-18T15:22:04;1.20;99.90
10964;DHT22;5534;48.784;9.190;2022-12-18T15:24:40;1.20;99.90
10964;DHT22;5534;48.784;9.190;2022-12-18T15:30:17;1.30;99.90
10964;DHT22;5534;48.784;9.190;2022-12-18T15:32:44;1.20;99.90
10964;DHT22;5534;48.784;9.190;2022-12-18T15:35:24;1.20;99.90
10964;DHT22;5534;48.784;9.190;2022-12-18T15:37:51;1.20;99.90
10964;DHT22;5534;48.784;9.190;2022-12-18T15:40:19;1.20;99.90
10964;DHT22;5534;48.784;9.190;2022-12-18T15:42:46;1.10;99.90
10964;DHT22;5534;48.784;9.190;2022-12-18T15:45:32;1.10;99.90
10964;DHT22;5534;48.784;9.190;2022-12-18T15:47:59;1.10;99.90
10964;DHT22;5534;48.784;9.190;2022-12-18T15:50:25;1.10;99.90
10964;DHT22;5534;48.784;9.190;2022-12-18T15:52:52;1.10;99.90
10964;DHT22;5534;48.784;9.190;2022-12-18T15:55:21;1.10;99.90
10964;DHT22;5534;48.784;9.190;2022-12-18T15:58:07;1.20;99.90
10964;DHT22;5534;48.784;9.190;2022-12-18T16:00:34;1.00;99.90
10964;DHT22;5534;48.784;9.190;2022-12-18T16:03:01;1.00;99.90
10964;DHT22;5534;48.784;9.190;2022-12-18T16:05:28;0.90;99.90
10964;DHT22;5534;48.784;9.190;2022-12-18T16:07:54;0.90;99.90
10964;DHT22;5534;48.784;9.190;2022-12-18T16:10:20;1.00;99.90
10964;DHT22;5534;48.784;9.190;2022-12-18T16:12:46;1.10;99.90
10964;DHT22;5534;48.784;9.190;2022-12-18T16:15:14;1.20;99.90
10964;DHT22;5534;48.784;9.190;2022-12-18T16:17:43;0.30;99.90
10964;DHT22;5534;48.784;9.190;2022-12-18T16:20:20;0.10;99.90
10964;DHT22;5534;48.784;9.190;2022-12-18T16:22:47;0.20;99.90
10964;DHT22;5534;48.784;9.190;2022-12-18T16:27:43;0.40;99.90
10964;DHT22;5534;48.784;9.190;2022-12-18T16:30:13;0.50;99.90
10964;DHT22;5534;48.784;9.190;2022-12-18T16:32:39;0.60;99.90
10964;DHT22;5534;48.784;9.190;2022-12-18T16:35:05;0.30;99.90
10964;DHT22;5534;48.784;9.190;2022-12-18T16:37:35;0.00;99.90
10964;DHT22;5534;48.784;9.190;2022-12-18T16:40:01;0.00;99.90
10964;DHT22;5534;48.784;9.190;2022-12-18T16:42:27;0.10;99.90
10964;DHT22;5534;48.784;9.190;2022-12-18T16:44:55;0.30;99.90
10964;DHT22;5534;48.784;9.190;2022-12-18T16:47:21;0.50;99.90
10964;DHT22;5534;48.784;9.190;2022-12-18T16:49:47;0.70;99.90
10964;DHT22;5534;48.784;9.190;2022-12-18T16:52:16;0.80;99.90
10964;DHT22;5534;48.784;9.190;2022-12-18T16:54:42;0.80;99.90
10964;DHT22;5534;48.784;9.190;2022-12-18T16:57:12;0.90;99.90
10964;DHT22;5534;48.784;9.190;2022-12-18T16:59:38;0.80;99.90
10964;DHT22;5534;48.784;9.190;2022-12-18T17:02:04;0.40;99.90
10964;DHT22;5534;48.784;9.190;2022-12-18T17:04:31;0.30;99.90
10964;DHT22;5534;48.784;9.190;2022-12-18T17:06:58;0.10;99.90
10964;DHT22;5534;48.784;9.190;2022-12-18T17:09:24;0.50;99.90
10964;DHT22;5534;48.784;9.190;2022-12-18T17:11:50;0.70;99.90
10964;DHT22;5534;48.784;9.190;2022-12-18T17:14:18;0.70;99.90
10964;DHT22;5534;48.784;9.190;2022-12-18T17:16:44;0.80;99.90
10964;DHT22;5534;48.784;9.190;2022-12-18T17:19:11;0.80;99.90
10964;DHT22;5534;48.784;9.190;2022-12-18T17:21:39;0.90;99.90
10964;DHT22;5534;48.784;9.190;2022-12-18T17:24:05;0.90;99.90
10964;DHT22;5534;48.784;9.190;2022-12-18T17:26:30;0.90;99.90
10964;DHT22;5534;48.784;9.190;2022-12-18T17:28:58;1.00;99.90
10964;DHT22;5534;48.784;9.190;2022-12-18T17:31:26;0.80;99.90
10964;DHT22;5534;48.784;9.190;2022-12-18T17:33:53;1.00;99.90
10964;DHT22;5534;48.784;9.190;2022-12-18T17:36:19;0.90;99.90
10964;DHT22;5534;48.784;9.190;2022-12-18T17:38:56;1.00;99.90
10964;DHT22;5534;48.784;9.190;2022-12-18T17:41:23;1.00;99.90
10964;DHT22;5534;48.784;9.190;2022-12-18T17:44:02;1.00;99.90
10964;DHT22;5534;48.784;9.190;2022-12-18T17:46:32;0.90;99.90
10964;DHT22;5534;48.784;9.190;2022-12-18T17:49:00;0.80;99.90
10964;DHT22;5534;48.784;9.190;2022-12-18T17:51:27;0.90;99.90